sensor_id;sensor_type;location;lat;lon;timestamp;temperature;humidity
39021;DHT22;25188;51.958;5.842;2023-07-30T00:00:12;16.30;96.40
39021;DHT22;25188;51.958;5.842;2023-07-30T00:02:38;16.30;96.50
39021;DHT22;25188;51.958;5.842;2023-07-30T00:05:04;16.30;96.50
39021;DHT22;25188;51.958;5.842;2023-07-30T00:07:29;16.30;96.60
39021;DHT22;25188;51.958;5.842;2023-07-30T00:09:55;16.30;96.70
39021;DHT22;25188;51.958;5.842;2023-07-30T00:12:21;16.30;96.70
39021;DHT22;25188;51.958;5.842;2023-07-30T00:14:46;16.20;96.80
39021;DHT22;25188;51.958;5.842;2023-07-30T00:17:12;16.20;96.80
39021;DHT22;25188;51.958;5.842;2023-07-30T00:19:37;16.20;96.90
39021;DHT22;25188;51.958;5.842;2023-07-30T00:22:03;16.10;96.90
39021;DHT22;25188;51.958;5.842;2023-07-30T00:24:29;16.10;97.00
39021;DHT22;25188;51.958;5.842;2023-07-30T00:26:54;16.10;97.00
39021;DHT22;25188;51.958;5.842;2023-07-30T00:29:20;16.10;97.00
39021;DHT22;25188;51.958;5.842;2023-07-30T00:31:46;16.10;97.00
39021;DHT22;25188;51.958;5.842;2023-07-30T00:34:11;16.10;97.10
39021;DHT22;25188;51.958;5.842;2023-07-30T00:36:37;16.00;97.10
39021;DHT22;25188;51.958;5.842;2023-07-30T00:39:02;16.00;97.10
39021;DHT22;25188;51.958;5.842;2023-07-30T00:41:28;16.00;97.20
39021;DHT22;25188;51.958;5.842;2023-07-30T00:43:54;16.00;97.50
39021;DHT22;25188;51.958;5.842;2023-07-30T00:46:20;16.00;97.20
39021;DHT22;25188;51.958;5.842;2023-07-30T00:48:45;16.00;97.20
39021;DHT22;25188;51.958;5.842;2023-07-30T00:51:13;15.90;97.20
39021;DHT22;25188;51.958;5.842;2023-07-30T00:53:40;15.90;97.50
39021;DHT22;25188;51.958;5.842;2023-07-30T00:56:06;15.90;97.20
39021;DHT22;25188;51.958;5.842;2023-07-30T00:58:33;15.90;97.20
39021;DHT22;25188;51.958;5.842;2023-07-30T01:00:58;15.90;97.20
39021;DHT22;25188;51.958;5.842;2023-07-30T01:03:24;15.80;97.20
39021;DHT22;25188;51.958;5.842;2023-07-30T01:05:51;15.80;97.30
39021;DHT22;25188;51.958;5.842;2023-07-30T01:08:16;15.80;97.30
39021;DHT22;25188;51.958;5.842;2023-07-30T01:10:43;15.80;97.30
39021;DHT22;25188;51.958;5.842;2023-07-30T01:13:10;15.80;97.30
39021;DHT22;25188;51.958;5.842;2023-07-30T01:15:36;15.80;97.40
39021;DHT22;25188;51.958;5.842;2023-07-30T01:18:02;15.80;97.40
39021;DHT22;25188;51.958;5.842;2023-07-30T01:20:32;15.70;97.40
39021;DHT22;25188;51.958;5.842;2023-07-30T01:23:00;15.70;97.40
39021;DHT22;25188;51.958;5.842;2023-07-30T01:25:31;15.70;97.40
39021;DHT22;25188;51.958;5.842;2023-07-30T01:28:00;15.70;97.50
39021;DHT22;25188;51.958;5.842;2023-07-30T01:30:30;15.60;97.80
39021;DHT22;25188;51.958;5.842;2023-07-30T01:32:56;15.60;97.50
39021;DHT22;25188;51.958;5.842;2023-07-30T01:35:26;15.60;97.60
39021;DHT22;25188;51.958;5.842;2023-07-30T01:37:52;15.60;97.60
39021;DHT22;25188;51.958;5.842;2023-07-30T01:40:20;15.60;97.60
39021;DHT22;25188;51.958;5.842;2023-07-30T01:42:46;15.60;97.70
39021;DHT22;25188;51.958;5.842;2023-07-30T01:45:11;15.60;97.70
39021;DHT22;25188;51.958;5.842;2023-07-30T01:47:37;15.60;97.70
39021;DHT22;25188;51.958;5.842;2023-07-30T01:50:03;15.60;97.70
39021;DHT22;25188;51.958;5.842;2023-07-30T01:52:29;15.50;97.80
39021;DHT22;25188;51.958;5.842;2023-07-30T01:54:54;15.50;98.10
39021;DHT22;25188;51.958;5.842;2023-07-30T01:57:21;15.50;97.90
39021;DHT22;25188;51.958;5.842;2023-07-30T01:59:47;15.50;98.00
39021;DHT22;25188;51.958;5.842;2023-07-30T02:02:12;15.50;98.10
39021;DHT22;25188;51.958;5.842;2023-07-30T02:04:38;15.50;98.10
39021;DHT22;25188;51.958;5.842;2023-07-30T02:07:04;15.50;98.10
39021;DHT22;25188;51.958;5.842;2023-07-30T02:09:29;15.50;98.10
39021;DHT22;25188;51.958;5.842;2023-07-30T02:11:55;15.50;98.20
39021;DHT22;25188;51.958;5.842;2023-07-30T02:14:21;15.40;98.30
39021;DHT22;25188;51.958;5.842;2023-07-30T02:16:46;15.50;98.40
39021;DHT22;25188;51.958;5.842;2023-07-30T02:19:12;15.50;98.40
39021;DHT22;25188;51.958;5.842;2023-07-30T02:21:37;15.50;98.40
39021;DHT22;25188;51.958;5.842;2023-07-30T02:24:08;15.50;98.40
39021;DHT22;25188;51.958;5.842;2023-07-30T02:26:37;15.50;98.50
39021;DHT22;25188;51.958;5.842;2023-07-30T02:29:03;15.50;98.60
39021;DHT22;25188;51.958;5.842;2023-07-30T02:31:29;15.60;98.60
39021;DHT22;25188;51.958;5.842;2023-07-30T02:33:54;15.50;98.60
39021;DHT22;25188;51.958;5.842;2023-07-30T02:36:20;15.60;98.70
39021;DHT22;25188;51.958;5.842;2023-07-30T02:38:46;15.60;98.70
39021;DHT22;25188;51.958;5.842;2023-07-30T02:41:11;15.60;98.80
39021;DHT22;25188;51.958;5.842;2023-07-30T02:43:37;15.70;98.80
39021;DHT22;25188;51.958;5.842;2023-07-30T02:46:03;15.70;98.80
39021;DHT22;25188;51.958;5.842;2023-07-30T02:48:28;15.70;98.90
39021;DHT22;25188;51.958;5.842;2023-07-30T02:50:54;15.70;98.90
39021;DHT22;25188;51.958;5.842;2023-07-30T02:53:19;15.80;98.90
39021;DHT22;25188;51.958;5.842;2023-07-30T02:55:45;15.80;98.90
39021;DHT22;25188;51.958;5.842;2023-07-30T02:58:10;15.80;98.90
39021;DHT22;25188;51.958;5.842;2023-07-30T03:00:36;15.80;98.90
39021;DHT22;25188;51.958;5.842;2023-07-30T03:03:02;15.80;98.90
39021;DHT22;25188;51.958;5.842;2023-07-30T03:05:28;15.80;98.90
39021;DHT22;25188;51.958;5.842;2023-07-30T03:07:53;15.80;99.00
39021;DHT22;25188;51.958;5.842;2023-07-30T03:10:19;15.80;99.00
39021;DHT22;25188;51.958;5.842;2023-07-30T03:12:45;15.80;99.00
39021;DHT22;25188;51.958;5.842;2023-07-30T03:15:10;15.80;99.10
39021;DHT22;25188;51.958;5.842;2023-07-30T03:17:36;15.80;99.10
39021;DHT22;25188;51.958;5.842;2023-07-30T03:20:02;15.80;99.10
39021;DHT22;25188;51.958;5.842;2023-07-30T03:22:29;15.90;99.20
39021;DHT22;25188;51.958;5.842;2023-07-30T03:24:55;15.90;99.20
39021;DHT22;25188;51.958;5.842;2023-07-30T03:27:20;15.80;99.20
39021;DHT22;25188;51.958;5.842;2023-07-30T03:29:46;15.90;99.30
39021;DHT22;25188;51.958;5.842;2023-07-30T03:32:12;15.90;99.30
39021;DHT22;25188;51.958;5.842;2023-07-30T03:34:37;15.90;99.40
39021;DHT22;25188;51.958;5.842;2023-07-30T03:37:03;15.90;99.40
39021;DHT22;25188;51.958;5.842;2023-07-30T03:39:29;15.90;99.50
39021;DHT22;25188;51.958;5.842;2023-07-30T03:41:54;15.90;99.50
39021;DHT22;25188;51.958;5.842;2023-07-30T03:44:20;15.90;99.60
39021;DHT22;25188;51.958;5.842;2023-07-30T03:46:46;15.90;99.60
39021;DHT22;25188;51.958;5.842;2023-07-30T03:49:11;15.90;99.60
39021;DHT22;25188;51.958;5.842;2023-07-30T03:51:37;15.90;99.70
39021;DHT22;25188;51.958;5.842;2023-07-30T03:54:04;15.90;99.70
39021;DHT22;25188;51.958;5.842;2023-07-30T03:56:30;15.90;99.80
39021;DHT22;25188;51.958;5.842;2023-07-30T03:58:56;15.90;99.90
39021;DHT22;25188;51.958;5.842;2023-07-30T04:01:21;16.00;99.90
39021;DHT22;25188;51.958;5.842;2023-07-30T04:03:47;15.90;99.90
39021;DHT22;25188;51.958;5.842;2023-07-30T04:06:13;16.00;99.90
39021;DHT22;25188;51.958;5.842;2023-07-30T04:08:38;16.00;99.90
39021;DHT22;25188;51.958;5.842;2023-07-30T04:11:04;16.00;99.90
39021;DHT22;25188;51.958;5.842;2023-07-30T04:13:29;16.00;99.90
39021;DHT22;25188;51.958;5.842;2023-07-30T04:15:55;16.00;99.90
39021;DHT22;25188;51.958;5.842;2023-07-30T04:18:21;16.00;99.90
39021;DHT22;25188;51.958;5.842;2023-07-30T04:20:48;16.00;99.90
39021;DHT22;25188;51.958;5.842;2023-07-30T04:23:14;16.00;99.90
39021;DHT22;25188;51.958;5.842;2023-07-30T04:25:39;16.00;99.90
39021;DHT22;25188;51.958;5.842;2023-07-30T04:28:05;16.00;99.90
39021;DHT22;25188;51.958;5.842;2023-07-30T04:30:32;16.00;99.90
39021;DHT22;25188;51.958;5.842;2023-07-30T04:32:57;16.00;99.90
39021;DHT22;25188;51.958;5.842;2023-07-30T04:35:23;16.00;99.90
39021;DHT22;25188;51.958;5.842;2023-07-30T04:37:48;16.00;99.90
39021;DHT22;25188;51.958;5.842;2023-07-30T04:40:14;16.10;99.90
39021;DHT22;25188;51.958;5.842;2023-07-30T04:42:40;16.10;99.90
39021;DHT22;25188;51.958;5.842;2023-07-30T04:45:06;16.10;99.90
39021;DHT22;25188;51.958;5.842;2023-07-30T04:47:32;16.10;99.90
39021;DHT22;25188;51.958;5.842;2023-07-30T04:49:57;16.10;99.90
39021;DHT22;25188;51.958;5.842;2023-07-30T04:52:23;16.20;99.90
39021;DHT22;25188;51.958;5.842;2023-07-30T04:54:49;16.20;99.90
39021;DHT22;25188;51.958;5.842;2023-07-30T04:57:14;16.20;99.90
39021;DHT22;25188;51.958;5.842;2023-07-30T04:59:40;16.30;99.90
39021;DHT22;25188;51.958;5.842;2023-07-30T05:02:06;16.30;99.90
39021;DHT22;25188;51.958;5.842;2023-07-30T05:04:32;16.30;99.90
39021;DHT22;25188;51.958;5.842;2023-07-30T05:06:57;16.30;99.90
39021;DHT22;25188;51.958;5.842;2023-07-30T05:09:23;16.40;99.90
39021;DHT22;25188;51.958;5.842;2023-07-30T05:11:49;16.40;99.90
39021;DHT22;25188;51.958;5.842;2023-07-30T05:14:14;16.40;99.90
39021;DHT22;25188;51.958;5.842;2023-07-30T05:16:40;16.40;99.90
39021;DHT22;25188;51.958;5.842;2023-07-30T05:19:05;16.50;99.90
39021;DHT22;25188;51.958;5.842;2023-07-30T05:21:31;16.50;99.90
39021;DHT22;25188;51.958;5.842;2023-07-30T05:23:57;16.60;99.90
39021;DHT22;25188;51.958;5.842;2023-07-30T05:26:22;16.50;99.90
39021;DHT22;25188;51.958;5.842;2023-07-30T05:28:48;16.60;99.90
39021;DHT22;25188;51.958;5.842;2023-07-30T05:31:14;16.60;99.90
39021;DHT22;25188;51.958;5.842;2023-07-30T05:33:39;16.60;99.90
39021;DHT22;25188;51.958;5.842;2023-07-30T05:36:05;16.70;99.90
39021;DHT22;25188;51.958;5.842;2023-07-30T05:38:31;16.70;99.90
39021;DHT22;25188;51.958;5.842;2023-07-30T05:40:57;16.70;99.90
39021;DHT22;25188;51.958;5.842;2023-07-30T05:43:22;16.70;99.90
39021;DHT22;25188;51.958;5.842;2023-07-30T05:45:48;16.70;99.90
39021;DHT22;25188;51.958;5.842;2023-07-30T05:48:14;16.70;99.90
39021;DHT22;25188;51.958;5.842;2023-07-30T05:50:39;16.80;99.90
39021;DHT22;25188;51.958;5.842;2023-07-30T05:53:05;16.80;99.90
39021;DHT22;25188;51.958;5.842;2023-07-30T05:55:30;16.80;99.90
39021;DHT22;25188;51.958;5.842;2023-07-30T05:57:56;16.90;99.90
39021;DHT22;25188;51.958;5.842;2023-07-30T06:00:22;16.90;99.90
39021;DHT22;25188;51.958;5.842;2023-07-30T06:02:47;16.90;99.90
39021;DHT22;25188;51.958;5.842;2023-07-30T06:05:13;17.00;99.90
39021;DHT22;25188;51.958;5.842;2023-07-30T06:07:39;17.00;99.90
39021;DHT22;25188;51.958;5.842;2023-07-30T06:10:05;17.10;99.90
39021;DHT22;25188;51.958;5.842;2023-07-30T06:12:30;17.10;99.90
39021;DHT22;25188;51.958;5.842;2023-07-30T06:14:56;17.10;99.90
39021;DHT22;25188;51.958;5.842;2023-07-30T06:17:22;17.10;99.90
39021;DHT22;25188;51.958;5.842;2023-07-30T06:19:47;17.10;99.90
39021;DHT22;25188;51.958;5.842;2023-07-30T06:22:13;17.20;99.90
39021;DHT22;25188;51.958;5.842;2023-07-30T06:24:39;17.20;99.90
39021;DHT22;25188;51.958;5.842;2023-07-30T06:27:05;17.30;99.90
39021;DHT22;25188;51.958;5.842;2023-07-30T06:29:30;17.30;99.90
39021;DHT22;25188;51.958;5.842;2023-07-30T06:31:56;17.30;99.90
39021;DHT22;25188;51.958;5.842;2023-07-30T06:34:22;17.40;99.90
39021;DHT22;25188;51.958;5.842;2023-07-30T06:36:47;17.40;99.90
39021;DHT22;25188;51.958;5.842;2023-07-30T06:39:13;17.50;99.90
39021;DHT22;25188;51.958;5.842;2023-07-30T06:41:39;17.50;99.90
39021;DHT22;25188;51.958;5.842;2023-07-30T06:44:04;17.50;99.90
39021;DHT22;25188;51.958;5.842;2023-07-30T06:46:30;17.60;99.90
39021;DHT22;25188;51.958;5.842;2023-07-30T06:48:55;17.70;99.90
39021;DHT22;25188;51.958;5.842;2023-07-30T06:51:24;17.70;99.90
39021;DHT22;25188;51.958;5.842;2023-07-30T06:53:50;17.70;99.90
39021;DHT22;25188;51.958;5.842;2023-07-30T06:56:15;17.80;99.90
39021;DHT22;25188;51.958;5.842;2023-07-30T06:58:41;17.80;99.90
39021;DHT22;25188;51.958;5.842;2023-07-30T07:01:06;17.90;99.90
39021;DHT22;25188;51.958;5.842;2023-07-30T07:03:32;17.90;99.90
39021;DHT22;25188;51.958;5.842;2023-07-30T07:05:58;18.00;99.90
39021;DHT22;25188;51.958;5.842;2023-07-30T07:08:23;18.00;99.90
39021;DHT22;25188;51.958;5.842;2023-07-30T07:10:49;18.00;99.90
39021;DHT22;25188;51.958;5.842;2023-07-30T07:13:16;18.00;99.90
39021;DHT22;25188;51.958;5.842;2023-07-30T07:15:42;18.00;99.90
39021;DHT22;25188;51.958;5.842;2023-07-30T07:18:08;18.10;99.90
39021;DHT22;25188;51.958;5.842;2023-07-30T07:20:33;18.10;99.90
39021;DHT22;25188;51.958;5.842;2023-07-30T07:22:59;18.20;99.90
39021;DHT22;25188;51.958;5.842;2023-07-30T07:25:25;18.30;99.90
39021;DHT22;25188;51.958;5.842;2023-07-30T07:27:50;18.30;99.90
39021;DHT22;25188;51.958;5.842;2023-07-30T07:30:16;18.40;99.60
39021;DHT22;25188;51.958;5.842;2023-07-30T07:32:42;18.40;99.40
39021;DHT22;25188;51.958;5.842;2023-07-30T07:35:08;18.40;99.30
39021;DHT22;25188;51.958;5.842;2023-07-30T07:37:34;18.50;99.20
39021;DHT22;25188;51.958;5.842;2023-07-30T07:40:00;18.40;99.10
39021;DHT22;25188;51.958;5.842;2023-07-30T07:42:26;18.50;99.20
39021;DHT22;25188;51.958;5.842;2023-07-30T07:44:52;18.60;99.20
39021;DHT22;25188;51.958;5.842;2023-07-30T07:47:18;18.70;99.00
39021;DHT22;25188;51.958;5.842;2023-07-30T07:49:44;18.80;98.60
39021;DHT22;25188;51.958;5.842;2023-07-30T07:52:10;18.80;98.30
39021;DHT22;25188;51.958;5.842;2023-07-30T07:54:35;18.90;98.20
39021;DHT22;25188;51.958;5.842;2023-07-30T07:57:01;18.90;98.00
39021;DHT22;25188;51.958;5.842;2023-07-30T07:59:27;18.90;97.80
39021;DHT22;25188;51.958;5.842;2023-07-30T08:01:53;18.90;97.60
39021;DHT22;25188;51.958;5.842;2023-07-30T08:04:19;18.90;97.00
39021;DHT22;25188;51.958;5.842;2023-07-30T08:06:47;18.90;97.00
39021;DHT22;25188;51.958;5.842;2023-07-30T08:09:12;18.90;96.70
39021;DHT22;25188;51.958;5.842;2023-07-30T08:11:38;18.90;96.60
39021;DHT22;25188;51.958;5.842;2023-07-30T08:14:04;18.90;96.50
39021;DHT22;25188;51.958;5.842;2023-07-30T08:16:29;19.00;96.60
39021;DHT22;25188;51.958;5.842;2023-07-30T08:18:55;19.00;96.50
39021;DHT22;25188;51.958;5.842;2023-07-30T08:21:21;19.10;96.20
39021;DHT22;25188;51.958;5.842;2023-07-30T08:23:46;19.10;96.10
39021;DHT22;25188;51.958;5.842;2023-07-30T08:26:12;19.20;96.20
39021;DHT22;25188;51.958;5.842;2023-07-30T08:28:38;19.20;95.80
39021;DHT22;25188;51.958;5.842;2023-07-30T08:31:03;19.20;95.60
39021;DHT22;25188;51.958;5.842;2023-07-30T08:33:29;19.20;95.50
39021;DHT22;25188;51.958;5.842;2023-07-30T08:35:59;19.20;95.40
39021;DHT22;25188;51.958;5.842;2023-07-30T08:38:25;19.30;95.50
39021;DHT22;25188;51.958;5.842;2023-07-30T08:40:51;19.30;95.30
39021;DHT22;25188;51.958;5.842;2023-07-30T08:43:19;19.40;94.70
39021;DHT22;25188;51.958;5.842;2023-07-30T08:45:45;19.50;94.60
39021;DHT22;25188;51.958;5.842;2023-07-30T08:48:11;19.50;94.50
39021;DHT22;25188;51.958;5.842;2023-07-30T08:50:37;19.60;94.00
39021;DHT22;25188;51.958;5.842;2023-07-30T08:53:03;19.70;94.10
39021;DHT22;25188;51.958;5.842;2023-07-30T08:55:33;19.80;94.20
39021;DHT22;25188;51.958;5.842;2023-07-30T08:58:01;19.90;93.20
39021;DHT22;25188;51.958;5.842;2023-07-30T09:00:30;19.90;92.90
39021;DHT22;25188;51.958;5.842;2023-07-30T09:02:59;19.90;93.10
39021;DHT22;25188;51.958;5.842;2023-07-30T09:05:25;19.90;92.60
39021;DHT22;25188;51.958;5.842;2023-07-30T09:07:54;19.90;92.40
39021;DHT22;25188;51.958;5.842;2023-07-30T09:10:20;19.80;92.20
39021;DHT22;25188;51.958;5.842;2023-07-30T09:12:52;19.80;91.70
39021;DHT22;25188;51.958;5.842;2023-07-30T09:15:20;19.80;91.90
39021;DHT22;25188;51.958;5.842;2023-07-30T09:17:55;19.70;92.10
39021;DHT22;25188;51.958;5.842;2023-07-30T09:20:21;19.80;92.10
39021;DHT22;25188;51.958;5.842;2023-07-30T09:22:46;19.80;91.90
39021;DHT22;25188;51.958;5.842;2023-07-30T09:25:14;19.90;91.60
39021;DHT22;25188;51.958;5.842;2023-07-30T09:27:41;19.90;91.50
39021;DHT22;25188;51.958;5.842;2023-07-30T09:30:07;20.00;91.60
39021;DHT22;25188;51.958;5.842;2023-07-30T09:32:34;20.10;90.90
39021;DHT22;25188;51.958;5.842;2023-07-30T09:35:08;20.10;91.10
39021;DHT22;25188;51.958;5.842;2023-07-30T09:37:39;20.20;90.90
39021;DHT22;25188;51.958;5.842;2023-07-30T09:40:10;20.30;90.60
39021;DHT22;25188;51.958;5.842;2023-07-30T09:42:38;20.30;90.20
39021;DHT22;25188;51.958;5.842;2023-07-30T09:45:06;20.50;90.30
39021;DHT22;25188;51.958;5.842;2023-07-30T09:47:37;20.50;89.50
39021;DHT22;25188;51.958;5.842;2023-07-30T09:50:03;20.60;89.80
39021;DHT22;25188;51.958;5.842;2023-07-30T09:52:32;20.80;88.60
39021;DHT22;25188;51.958;5.842;2023-07-30T09:54:58;20.80;88.50
39021;DHT22;25188;51.958;5.842;2023-07-30T09:57:24;20.90;87.30
39021;DHT22;25188;51.958;5.842;2023-07-30T09:59:50;20.80;86.00
39021;DHT22;25188;51.958;5.842;2023-07-30T10:02:16;20.80;85.80
39021;DHT22;25188;51.958;5.842;2023-07-30T10:04:44;20.60;85.10
39021;DHT22;25188;51.958;5.842;2023-07-30T10:07:20;20.50;86.00
39021;DHT22;25188;51.958;5.842;2023-07-30T10:09:48;20.40;86.70
39021;DHT22;25188;51.958;5.842;2023-07-30T10:12:21;20.30;86.90
39021;DHT22;25188;51.958;5.842;2023-07-30T10:14:48;20.30;87.00
39021;DHT22;25188;51.958;5.842;2023-07-30T10:17:16;20.30;86.40
39021;DHT22;25188;51.958;5.842;2023-07-30T10:19:48;20.10;86.20
39021;DHT22;25188;51.958;5.842;2023-07-30T10:22:24;20.10;86.10
39021;DHT22;25188;51.958;5.842;2023-07-30T10:25:02;20.10;86.00
39021;DHT22;25188;51.958;5.842;2023-07-30T10:27:40;20.20;86.10
39021;DHT22;25188;51.958;5.842;2023-07-30T10:30:16;20.30;85.70
39021;DHT22;25188;51.958;5.842;2023-07-30T10:32:57;20.30;84.90
39021;DHT22;25188;51.958;5.842;2023-07-30T10:35:43;20.40;84.70
39021;DHT22;25188;51.958;5.842;2023-07-30T10:38:17;20.40;84.80
39021;DHT22;25188;51.958;5.842;2023-07-30T10:41:14;20.50;84.40
39021;DHT22;25188;51.958;5.842;2023-07-30T10:43:48;20.50;84.20
39021;DHT22;25188;51.958;5.842;2023-07-30T10:46:17;20.60;83.80
39021;DHT22;25188;51.958;5.842;2023-07-30T10:48:44;20.60;84.20
39021;DHT22;25188;51.958;5.842;2023-07-30T10:51:18;20.80;83.40
39021;DHT22;25188;51.958;5.842;2023-07-30T10:53:48;20.90;83.30
39021;DHT22;25188;51.958;5.842;2023-07-30T10:56:17;21.20;83.60
39021;DHT22;25188;51.958;5.842;2023-07-30T10:58:43;21.60;83.60
39021;DHT22;25188;51.958;5.842;2023-07-30T11:01:14;22.20;83.80
39021;DHT22;25188;51.958;5.842;2023-07-30T11:03:39;22.80;82.50
39021;DHT22;25188;51.958;5.842;2023-07-30T11:06:05;23.40;81.80
39021;DHT22;25188;51.958;5.842;2023-07-30T11:11:02;24.30;76.20
39021;DHT22;25188;51.958;5.842;2023-07-30T11:13:27;24.70;75.90
39021;DHT22;25188;51.958;5.842;2023-07-30T11:15:53;25.20;75.30
39021;DHT22;25188;51.958;5.842;2023-07-30T11:18:19;25.40;72.90
39021;DHT22;25188;51.958;5.842;2023-07-30T11:20:45;25.40;71.10
39021;DHT22;25188;51.958;5.842;2023-07-30T11:23:22;25.30;69.90
39021;DHT22;25188;51.958;5.842;2023-07-30T11:25:51;25.30;69.40
39021;DHT22;25188;51.958;5.842;2023-07-30T11:28:32;25.30;69.80
39021;DHT22;25188;51.958;5.842;2023-07-30T11:31:00;25.40;69.90
39021;DHT22;25188;51.958;5.842;2023-07-30T11:33:30;25.70;69.00
39021;DHT22;25188;51.958;5.842;2023-07-30T11:35:56;26.30;67.80
39021;DHT22;25188;51.958;5.842;2023-07-30T11:38:26;26.70;66.00
39021;DHT22;25188;51.958;5.842;2023-07-30T11:40:53;27.00;65.40
39021;DHT22;25188;51.958;5.842;2023-07-30T11:43:22;27.20;62.00
39021;DHT22;25188;51.958;5.842;2023-07-30T11:45:49;27.10;59.80
39021;DHT22;25188;51.958;5.842;2023-07-30T11:48:14;26.80;58.50
39021;DHT22;25188;51.958;5.842;2023-07-30T11:50:47;26.40;58.60
39021;DHT22;25188;51.958;5.842;2023-07-30T11:53:13;26.00;59.30
39021;DHT22;25188;51.958;5.842;2023-07-30T11:55:40;25.40;60.40
39021;DHT22;25188;51.958;5.842;2023-07-30T11:58:07;25.00;61.20
39021;DHT22;25188;51.958;5.842;2023-07-30T12:00:37;24.60;61.50
39021;DHT22;25188;51.958;5.842;2023-07-30T12:03:04;24.20;63.10
39021;DHT22;25188;51.958;5.842;2023-07-30T12:05:34;23.90;64.80
39021;DHT22;25188;51.958;5.842;2023-07-30T12:08:04;23.80;66.00
39021;DHT22;25188;51.958;5.842;2023-07-30T12:10:46;24.30;66.70
39021;DHT22;25188;51.958;5.842;2023-07-30T12:13:19;25.00;66.30
39021;DHT22;25188;51.958;5.842;2023-07-30T12:15:54;25.50;64.00
39021;DHT22;25188;51.958;5.842;2023-07-30T12:18:21;25.80;61.40
39021;DHT22;25188;51.958;5.842;2023-07-30T12:20:47;25.70;59.60
39021;DHT22;25188;51.958;5.842;2023-07-30T12:23:13;25.50;60.00
39021;DHT22;25188;51.958;5.842;2023-07-30T12:25:39;25.20;60.70
39021;DHT22;25188;51.958;5.842;2023-07-30T12:28:05;25.00;61.80
39021;DHT22;25188;51.958;5.842;2023-07-30T12:30:31;24.80;60.50
39021;DHT22;25188;51.958;5.842;2023-07-30T12:32:57;24.50;60.90
39021;DHT22;25188;51.958;5.842;2023-07-30T12:35:23;24.20;60.80
39021;DHT22;25188;51.958;5.842;2023-07-30T12:37:49;24.10;61.70
39021;DHT22;25188;51.958;5.842;2023-07-30T12:40:16;24.60;60.80
39021;DHT22;25188;51.958;5.842;2023-07-30T12:42:41;24.90;60.20
39021;DHT22;25188;51.958;5.842;2023-07-30T12:45:07;25.00;59.70
39021;DHT22;25188;51.958;5.842;2023-07-30T12:47:33;25.10;59.70
39021;DHT22;25188;51.958;5.842;2023-07-30T12:50:01;25.30;59.70
39021;DHT22;25188;51.958;5.842;2023-07-30T12:52:27;25.70;59.50
39021;DHT22;25188;51.958;5.842;2023-07-30T12:54:53;26.00;57.80
39021;DHT22;25188;51.958;5.842;2023-07-30T12:57:18;26.30;56.60
39021;DHT22;25188;51.958;5.842;2023-07-30T12:59:44;26.50;55.40
39021;DHT22;25188;51.958;5.842;2023-07-30T13:02:09;26.60;54.90
39021;DHT22;25188;51.958;5.842;2023-07-30T13:04:36;26.30;53.90
39021;DHT22;25188;51.958;5.842;2023-07-30T13:07:02;26.30;55.10
39021;DHT22;25188;51.958;5.842;2023-07-30T13:09:28;26.50;54.40
39021;DHT22;25188;51.958;5.842;2023-07-30T13:11:54;26.70;54.10
39021;DHT22;25188;51.958;5.842;2023-07-30T13:14:19;26.70;53.90
39021;DHT22;25188;51.958;5.842;2023-07-30T13:16:45;26.30;54.20
39021;DHT22;25188;51.958;5.842;2023-07-30T13:19:11;26.00;55.10
39021;DHT22;25188;51.958;5.842;2023-07-30T13:21:37;26.00;55.70
39021;DHT22;25188;51.958;5.842;2023-07-30T13:24:03;26.30;56.30
39021;DHT22;25188;51.958;5.842;2023-07-30T13:26:28;26.60;55.90
39021;DHT22;25188;51.958;5.842;2023-07-30T13:28:54;26.70;54.50
39021;DHT22;25188;51.958;5.842;2023-07-30T13:31:20;26.50;52.80
39021;DHT22;25188;51.958;5.842;2023-07-30T13:33:45;26.20;53.30
39021;DHT22;25188;51.958;5.842;2023-07-30T13:36:12;26.30;53.80
39021;DHT22;25188;51.958;5.842;2023-07-30T13:38:38;26.90;52.70
39021;DHT22;25188;51.958;5.842;2023-07-30T13:41:05;27.30;50.90
39021;DHT22;25188;51.958;5.842;2023-07-30T13:43:31;27.50;49.00
39021;DHT22;25188;51.958;5.842;2023-07-30T13:45:57;27.70;49.20
39021;DHT22;25188;51.958;5.842;2023-07-30T13:48:25;27.90;48.50
39021;DHT22;25188;51.958;5.842;2023-07-30T13:50:50;28.20;48.50
39021;DHT22;25188;51.958;5.842;2023-07-30T13:53:16;28.50;49.10
39021;DHT22;25188;51.958;5.842;2023-07-30T13:55:42;28.80;47.70
39021;DHT22;25188;51.958;5.842;2023-07-30T13:58:08;28.90;47.10
39021;DHT22;25188;51.958;5.842;2023-07-30T14:00:34;28.90;46.90
39021;DHT22;25188;51.958;5.842;2023-07-30T14:02:59;29.00;47.10
39021;DHT22;25188;51.958;5.842;2023-07-30T14:05:25;29.20;47.00
39021;DHT22;25188;51.958;5.842;2023-07-30T14:07:54;29.30;45.60
39021;DHT22;25188;51.958;5.842;2023-07-30T14:10:22;29.10;45.80
39021;DHT22;25188;51.958;5.842;2023-07-30T14:12:48;28.80;46.10
39021;DHT22;25188;51.958;5.842;2023-07-30T14:15:14;28.60;46.70
39021;DHT22;25188;51.958;5.842;2023-07-30T14:17:40;28.60;47.30
39021;DHT22;25188;51.958;5.842;2023-07-30T14:20:06;28.60;47.90
39021;DHT22;25188;51.958;5.842;2023-07-30T14:22:33;28.60;47.90
39021;DHT22;25188;51.958;5.842;2023-07-30T14:24:59;28.50;48.50
39021;DHT22;25188;51.958;5.842;2023-07-30T14:27:25;28.30;47.80
39021;DHT22;25188;51.958;5.842;2023-07-30T14:29:51;28.10;47.90
39021;DHT22;25188;51.958;5.842;2023-07-30T14:32:19;27.80;47.70
39021;DHT22;25188;51.958;5.842;2023-07-30T14:34:44;27.30;48.40
39021;DHT22;25188;51.958;5.842;2023-07-30T14:37:10;26.90;49.30
39021;DHT22;25188;51.958;5.842;2023-07-30T14:39:36;26.50;49.70
39021;DHT22;25188;51.958;5.842;2023-07-30T14:42:01;26.40;49.80
39021;DHT22;25188;51.958;5.842;2023-07-30T14:44:27;26.50;49.90
39021;DHT22;25188;51.958;5.842;2023-07-30T14:46:53;26.50;49.50
39021;DHT22;25188;51.958;5.842;2023-07-30T14:49:19;26.30;50.50
39021;DHT22;25188;51.958;5.842;2023-07-30T14:51:45;25.90;50.70
39021;DHT22;25188;51.958;5.842;2023-07-30T14:54:11;25.70;51.60
39021;DHT22;25188;51.958;5.842;2023-07-30T14:56:38;25.60;52.40
39021;DHT22;25188;51.958;5.842;2023-07-30T14:59:03;25.70;51.50
39021;DHT22;25188;51.958;5.842;2023-07-30T15:01:29;25.80;51.20
39021;DHT22;25188;51.958;5.842;2023-07-30T15:03:55;25.70;51.40
39021;DHT22;25188;51.958;5.842;2023-07-30T15:06:21;25.70;52.50
39021;DHT22;25188;51.958;5.842;2023-07-30T15:08:47;25.90;52.30
39021;DHT22;25188;51.958;5.842;2023-07-30T15:11:13;25.90;51.90
39021;DHT22;25188;51.958;5.842;2023-07-30T15:13:40;25.80;52.30
39021;DHT22;25188;51.958;5.842;2023-07-30T15:16:06;25.60;52.90
39021;DHT22;25188;51.958;5.842;2023-07-30T15:18:32;25.30;53.30
39021;DHT22;25188;51.958;5.842;2023-07-30T15:20:58;25.00;53.80
39021;DHT22;25188;51.958;5.842;2023-07-30T15:23:24;24.80;54.50
39021;DHT22;25188;51.958;5.842;2023-07-30T15:25:50;24.50;55.20
39021;DHT22;25188;51.958;5.842;2023-07-30T15:28:17;24.30;55.30